Au Sable, Michigan
Current Conditions -  °F | °C
As of 9:54 AM on Tuesday 21 Oct 2014 (Local Time) from KOSC Reporting Station
Overcast Overcast  
Wind Chill: 34°   Ceiling: 2100
Heat Index: 43°   Visibility: 10mi
Dew Point: 36°   Wind: 21mph
Humidity: 76%   Direction: 10°N
Pressure: 30.07"   Gusts: 26mph
Location:  44.4539°N, 83.4813°W
Report Text: KOSC 211354Z AUTO 01018G23KT 10SM OVC021 06/02 A3007 RMK AO2 T00620023
Loading
Personal Weather Stations






























Interactive Weather Map
Tropical Storm Tracking
New forecast layout! Learn more

10-Day Weather Forecast

Advertisements
Track Severe Weather on mobile